createdAt,value
2019-05-19T00:00:02.795Z,67.55
2019-05-19T00:01:02.765Z,68.02
2019-05-19T00:02:02.778Z,68.05
2019-05-19T00:03:02.740Z,67.95
2019-05-19T00:04:02.730Z,67.34
2019-05-19T00:05:02.721Z,67.65
2019-05-19T00:06:02.717Z,67.75
2019-05-19T00:07:02.762Z,67.75
2019-05-19T00:08:02.721Z,67.55
2019-05-19T00:09:02.674Z,67.03
2019-05-19T00:10:02.731Z,66.74
2019-05-19T00:11:02.664Z,67.34
2019-05-19T00:12:02.670Z,67.55
2019-05-19T00:13:02.637Z,67.65
2019-05-19T00:14:02.633Z,66.94
2019-05-19T00:15:02.620Z,67.55
2019-05-19T00:16:02.602Z,66.94
2019-05-19T00:17:02.621Z,67.34
2019-05-19T00:18:02.599Z,67.24
2019-05-19T00:19:02.612Z,67.55
2019-05-19T00:20:02.567Z,67.47
2019-05-19T00:21:02.552Z,67.58
2019-05-19T00:22:02.566Z,68.49
2019-05-19T00:23:02.536Z,68.32
2019-05-19T00:24:02.523Z,68.90
2019-05-19T00:25:02.512Z,68.93
2019-05-19T00:26:02.503Z,69.34
2019-05-19T00:27:02.519Z,69.84
2019-05-19T00:28:02.501Z,69.87
2019-05-19T00:29:02.469Z,70.42
2019-05-19T00:30:02.497Z,71.36
2019-05-19T00:31:02.452Z,72.28
2019-05-19T00:32:02.466Z,72.52
2019-05-19T00:33:02.423Z,73.02
2019-05-19T00:34:02.417Z,73.43
2019-05-19T00:35:02.448Z,73.84
2019-05-19T00:36:02.407Z,73.87
2019-05-19T00:37:02.416Z,74.18
2019-05-19T00:38:02.369Z,74.28
2019-05-19T00:39:02.367Z,74.18
2019-05-19T00:40:02.356Z,75.09
2019-05-19T00:41:02.386Z,74.38
2019-05-19T00:42:02.359Z,75.06
2019-05-19T00:43:02.324Z,74.58
2019-05-19T00:44:02.310Z,74.69
2019-05-19T00:45:02.310Z,74.48
2019-05-19T00:46:02.296Z,74.82
2019-05-19T00:47:02.287Z,75.64
2019-05-19T00:48:02.294Z,75.95
2019-05-19T00:49:02.272Z,75.23
2019-05-19T00:50:02.255Z,75.98
2019-05-19T00:51:02.280Z,76.18
2019-05-19T00:52:02.240Z,76.18
2019-05-19T00:53:02.243Z,76.18
2019-05-19T00:54:02.207Z,76.49
2019-05-19T00:55:02.206Z,77.00
2019-05-19T00:56:02.185Z,77.10
2019-05-19T00:57:02.175Z,77.71
2019-05-19T00:58:02.194Z,77.30
2019-05-19T00:59:02.161Z,77.10
2019-05-19T01:00:02.162Z,77.40
2019-05-19T01:01:02.129Z,77.40
2019-05-19T01:02:02.124Z,77.37
2019-05-19T01:03:02.162Z,76.90
2019-05-19T01:04:02.099Z,77.37
2019-05-19T01:05:02.089Z,76.90
2019-05-19T01:06:02.083Z,76.90
2019-05-19T01:07:02.078Z,76.90
2019-05-19T01:08:02.088Z,77.26
2019-05-19T01:09:02.048Z,77.00
2019-05-19T01:10:02.043Z,77.26
2019-05-19T01:11:02.039Z,77.51
2019-05-19T01:12:02.020Z,77.37
2019-05-19T01:13:02.044Z,77.40
2019-05-19T01:14:01.995Z,77.30
2019-05-19T01:15:01.988Z,76.76
2019-05-19T01:16:01.977Z,77.20
2019-05-19T01:17:02.256Z,77.30
2019-05-19T01:18:01.978Z,77.00
2019-05-19T01:19:01.947Z,77.00
2019-05-19T01:20:01.936Z,76.59
2019-05-19T01:21:01.920Z,77.20
2019-05-19T01:22:01.916Z,77.30
2019-05-19T01:23:01.928Z,77.91
2019-05-19T01:24:01.895Z,77.00
2019-05-19T01:25:01.906Z,77.51
2019-05-19T01:26:01.867Z,77.55
2019-05-19T01:27:01.859Z,78.46
2019-05-19T01:28:01.889Z,78.46
2019-05-19T01:29:01.844Z,78.66
2019-05-19T01:30:01.825Z,78.26
2019-05-19T01:31:01.811Z,78.36
2019-05-19T01:32:01.803Z,78.05
2019-05-19T01:33:01.826Z,78.26
2019-05-19T01:34:01.783Z,78.26
2019-05-19T01:35:01.773Z,78.46
2019-05-19T01:36:01.758Z,78.46
2019-05-19T01:37:01.749Z,78.50
2019-05-19T01:38:01.764Z,78.46
2019-05-19T01:39:01.730Z,78.05
2019-05-19T01:40:01.726Z,78.66
2019-05-19T01:41:01.713Z,78.05
2019-05-19T01:42:01.700Z,77.40
2019-05-19T01:43:01.720Z,77.30
2019-05-19T01:44:01.670Z,76.90
2019-05-19T01:45:01.706Z,77.20
2019-05-19T01:46:01.652Z,76.69
2019-05-19T01:47:01.641Z,76.69
2019-05-19T01:48:01.667Z,76.69
2019-05-19T01:49:01.625Z,76.59
2019-05-19T01:50:16.947Z,76.39
2019-05-19T01:51:02.598Z,76.08
2019-05-19T01:52:01.588Z,76.28
2019-05-19T01:53:01.598Z,76.49
2019-05-19T01:54:01.562Z,76.08
2019-05-19T01:55:01.554Z,75.95
2019-05-19T01:56:01.548Z,75.43
2019-05-19T01:57:01.538Z,75.43
2019-05-19T01:58:01.555Z,75.43
2019-05-19T01:59:01.516Z,75.13
2019-05-19T02:00:01.527Z,75.23
2019-05-19T02:01:01.500Z,75.13
2019-05-19T02:02:01.483Z,75.43
2019-05-19T02:03:01.497Z,75.37
2019-05-19T02:04:01.489Z,75.54
2019-05-19T02:05:01.478Z,75.43
2019-05-19T02:06:01.435Z,75.43
2019-05-19T02:07:01.422Z,75.74
2019-05-19T02:08:01.450Z,75.67
2019-05-19T02:09:01.414Z,75.78
2019-05-19T02:10:01.400Z,76.08
2019-05-19T02:11:02.384Z,75.98
2019-05-19T02:12:01.371Z,76.08
2019-05-19T02:13:01.390Z,75.78
2019-05-19T02:14:01.352Z,75.74
2019-05-19T02:15:01.348Z,75.74
2019-05-19T02:16:01.332Z,75.64
2019-05-19T02:17:01.352Z,76.08
2019-05-19T02:18:01.335Z,76.49
2019-05-19T02:19:01.297Z,77.40
2019-05-19T02:20:01.305Z,78.16
2019-05-19T02:21:01.279Z,78.36
2019-05-19T02:22:01.263Z,78.36
2019-05-19T02:23:01.297Z,79.41
2019-05-19T02:24:01.247Z,79.52
2019-05-19T02:25:01.237Z,80.02
2019-05-19T02:26:01.223Z,79.86
2019-05-19T02:27:01.289Z,80.47
2019-05-19T02:28:01.237Z,80.16
2019-05-19T02:29:01.188Z,80.37
2019-05-19T02:30:01.205Z,80.07
2019-05-19T02:31:01.168Z,80.71
2019-05-19T02:32:01.172Z,79.80
2019-05-19T02:33:01.174Z,80.71
2019-05-19T02:34:01.149Z,81.77
2019-05-19T02:35:01.123Z,82.01
2019-05-19T02:36:01.126Z,83.24
2019-05-19T02:37:01.101Z,84.00
2019-05-19T02:38:01.115Z,84.20
2019-05-19T02:39:01.079Z,84.91
2019-05-19T02:40:01.068Z,85.36
2019-05-19T02:41:01.064Z,85.36
2019-05-19T02:42:01.053Z,85.63
2019-05-19T02:43:01.070Z,85.12
2019-05-19T02:44:01.033Z,85.16
2019-05-19T02:45:01.016Z,85.57
2019-05-19T02:46:01.029Z,85.77
2019-05-19T02:47:01.007Z,85.67
2019-05-19T02:48:01.015Z,87.00
2019-05-19T02:49:00.975Z,86.63
2019-05-19T02:50:00.977Z,86.18
2019-05-19T02:51:00.962Z,86.69
2019-05-19T02:52:00.952Z,87.24
2019-05-19T02:53:00.973Z,87.71
2019-05-19T02:54:00.931Z,88.18
2019-05-19T02:55:00.918Z,86.76
2019-05-19T02:56:00.916Z,86.44
2019-05-19T02:57:08.897Z,86.04
2019-05-19T02:58:00.883Z,85.79
2019-05-19T02:59:00.914Z,85.63
2019-05-19T03:00:00.854Z,85.32
2019-05-19T03:01:00.848Z,85.53
2019-05-19T03:02:00.837Z,85.12
2019-05-19T03:03:00.821Z,85.83
2019-05-19T03:04:00.846Z,85.83
2019-05-19T03:05:00.829Z,85.59
2019-05-19T03:06:00.791Z,85.32
2019-05-19T03:07:00.789Z,85.22
2019-05-19T03:08:00.773Z,85.32
2019-05-19T03:09:00.781Z,85.12
2019-05-19T03:10:00.756Z,85.42
2019-05-19T03:11:00.736Z,85.22
2019-05-19T03:12:00.789Z,85.22
2019-05-19T03:13:00.718Z,85.63
2019-05-19T03:14:00.740Z,85.63
2019-05-19T03:15:00.696Z,85.53
2019-05-19T03:16:00.685Z,85.63
2019-05-19T03:17:00.671Z,85.63
2019-05-19T03:18:00.679Z,85.73
2019-05-19T03:19:00.693Z,85.42
2019-05-19T03:20:00.643Z,85.22
2019-05-19T03:21:10.392Z,85.53
2019-05-19T03:22:01.616Z,85.53
2019-05-19T03:23:00.608Z,85.12
2019-05-19T03:24:00.627Z,85.12
2019-05-19T03:25:00.589Z,85.12
2019-05-19T03:26:00.574Z,85.22
2019-05-19T03:27:00.579Z,84.00
2019-05-19T03:28:00.565Z,84.65
2019-05-19T03:29:00.579Z,84.44
2019-05-19T03:30:00.541Z,85.50
2019-05-19T03:31:00.532Z,86.53
2019-05-19T03:32:00.515Z,86.69
2019-05-19T03:33:00.613Z,85.67
2019-05-19T03:34:00.520Z,85.32
2019-05-19T03:35:00.489Z,84.91
2019-05-19T03:36:00.468Z,85.36
2019-05-19T03:37:00.476Z,85.36
2019-05-19T03:38:00.453Z,85.26
2019-05-19T03:39:00.463Z,85.61
2019-05-19T03:40:00.423Z,85.30
2019-05-19T03:41:00.417Z,85.61
2019-05-19T03:42:00.411Z,87.35
2019-05-19T03:43:00.401Z,87.76
2019-05-19T03:44:00.408Z,88.47
2019-05-19T03:45:00.372Z,88.12
2019-05-19T03:46:00.359Z,87.30
2019-05-19T03:47:00.361Z,86.24
2019-05-19T03:48:00.340Z,86.18
2019-05-19T03:49:00.355Z,85.53
2019-05-19T03:50:00.328Z,85.53
2019-05-19T03:51:00.310Z,85.94
2019-05-19T03:52:00.295Z,85.94
2019-05-19T03:53:00.283Z,85.12
2019-05-19T03:54:00.301Z,85.12
2019-05-19T03:55:00.267Z,85.49
2019-05-19T03:56:00.254Z,84.98
2019-05-19T03:57:00.253Z,84.57
2019-05-19T03:58:00.231Z,84.26
2019-05-19T03:59:00.247Z,84.16
2019-05-19T04:00:00.226Z,83.40
2019-05-19T04:01:00.202Z,83.51
2019-05-19T04:02:00.191Z,83.20
2019-05-19T04:03:00.175Z,83.20
2019-05-19T04:04:00.221Z,83.20
2019-05-19T04:05:00.159Z,83.00
2019-05-19T04:06:00.153Z,83.40
2019-05-19T04:07:00.133Z,83.00
2019-05-19T04:08:00.130Z,83.16
2019-05-19T04:09:00.429Z,82.65
2019-05-19T04:10:00.118Z,82.45
2019-05-19T04:11:00.097Z,81.84
2019-05-19T04:12:00.133Z,82.45
2019-05-19T04:13:00.072Z,82.96
2019-05-19T04:14:00.086Z,83.06
2019-05-19T04:15:00.046Z,83.26
2019-05-19T04:16:00.051Z,82.35
2019-05-19T04:17:00.037Z,82.55
2019-05-19T04:18:00.016Z,82.35
2019-05-19T04:19:00.007Z,81.84
2019-05-19T04:20:00.033Z,82.04
2019-05-19T04:20:59.987Z,81.73
2019-05-19T04:21:59.974Z,81.84
2019-05-19T04:22:59.964Z,81.94
2019-05-19T04:23:59.955Z,82.14
2019-05-19T04:24:59.967Z,82.55
2019-05-19T04:25:59.932Z,82.55
2019-05-19T04:26:59.918Z,82.00
2019-05-19T04:27:59.910Z,82.00
2019-05-19T04:28:59.900Z,81.80
2019-05-19T04:29:59.920Z,81.59
2019-05-19T04:30:59.879Z,81.59
2019-05-19T04:31:59.877Z,80.64
2019-05-19T04:32:59.859Z,80.37
2019-05-19T04:33:59.847Z,80.64
2019-05-19T04:34:59.863Z,80.74
2019-05-19T04:35:59.824Z,80.33
2019-05-19T04:36:59.821Z,80.09
2019-05-19T04:37:59.800Z,79.99
2019-05-19T04:38:59.794Z,79.48
2019-05-19T04:39:59.803Z,79.64
2019-05-19T04:40:59.768Z,81.38
2019-05-19T04:41:59.759Z,81.68
2019-05-19T04:42:59.751Z,81.27
2019-05-19T04:43:59.739Z,81.38
2019-05-19T04:44:59.754Z,81.48
2019-05-19T04:45:59.719Z,81.48
2019-05-19T04:46:59.712Z,79.85
2019-05-19T04:47:59.698Z,79.14
2019-05-19T04:48:59.689Z,79.50
2019-05-19T04:49:59.707Z,79.10
2019-05-19T04:50:59.668Z,78.25
2019-05-19T04:52:06.729Z,77.29
2019-05-19T04:53:00.644Z,77.09
2019-05-19T04:53:59.646Z,76.65
2019-05-19T04:54:59.648Z,75.73
2019-05-19T04:55:59.702Z,75.73
2019-05-19T04:56:59.606Z,74.79
2019-05-19T04:57:59.591Z,75.29
2019-05-19T04:58:59.589Z,74.79
2019-05-19T04:59:59.605Z,74.99
2019-05-19T05:00:59.559Z,75.29
2019-05-19T05:01:59.556Z,75.63
2019-05-19T05:02:59.539Z,76.55
2019-05-19T05:03:59.531Z,77.81
2019-05-19T05:04:59.591Z,78.25
2019-05-19T05:05:59.511Z,79.16
2019-05-19T05:06:59.518Z,79.27
2019-05-19T05:07:59.491Z,78.05
2019-05-19T05:08:59.471Z,78.62
2019-05-19T05:09:59.486Z,78.01
2019-05-19T05:10:59.450Z,76.45
2019-05-19T05:11:59.444Z,76.45
2019-05-19T05:12:59.427Z,76.65
2019-05-19T05:13:59.427Z,75.43
2019-05-19T05:14:59.439Z,75.90
2019-05-19T05:15:59.398Z,75.12
2019-05-19T05:16:59.388Z,76.10
2019-05-19T05:17:59.387Z,75.60
2019-05-19T05:18:59.368Z,75.19
2019-05-19T05:19:59.383Z,75.49
2019-05-19T05:20:59.345Z,75.76
2019-05-19T05:21:59.331Z,74.44
2019-05-19T05:22:59.336Z,74.99
2019-05-19T05:23:59.315Z,75.19
2019-05-19T05:24:59.329Z,75.43
2019-05-19T05:25:59.307Z,75.73
2019-05-19T05:26:59.281Z,75.26
2019-05-19T05:27:59.267Z,74.75
2019-05-19T05:28:59.275Z,75.19
2019-05-19T05:29:59.271Z,75.90
2019-05-19T05:30:59.242Z,75.56
2019-05-19T05:31:59.229Z,75.32
2019-05-19T05:32:59.220Z,75.02
2019-05-19T05:33:59.207Z,74.48
2019-05-19T05:34:59.222Z,74.27
2019-05-19T05:35:59.206Z,73.70
2019-05-19T05:36:59.176Z,74.65
2019-05-19T05:37:59.170Z,75.29
2019-05-19T05:38:59.159Z,75.40
2019-05-19T05:39:59.168Z,75.84
2019-05-19T05:40:59.130Z,75.90
2019-05-19T05:41:59.126Z,75.40
2019-05-19T05:42:59.112Z,75.80
2019-05-19T05:43:59.103Z,74.65
2019-05-19T05:44:59.143Z,74.65
2019-05-19T05:45:59.082Z,73.90
2019-05-19T05:46:59.070Z,73.66
2019-05-19T05:47:59.059Z,72.21
2019-05-19T05:48:59.046Z,71.16
2019-05-19T05:49:59.064Z,69.48
2019-05-19T05:50:59.029Z,68.94
2019-05-19T05:51:59.015Z,68.50
2019-05-19T05:52:59.010Z,67.15
2019-05-19T05:53:58.996Z,67.32
2019-05-19T05:54:59.010Z,67.29
2019-05-19T05:55:58.973Z,68.80
2019-05-19T05:56:58.962Z,70.96
2019-05-19T05:57:58.951Z,70.72
2019-05-19T05:58:58.940Z,69.68
2019-05-19T05:59:58.958Z,69.54
2019-05-19T06:00:58.920Z,68.73
2019-05-19T06:01:58.910Z,68.16
2019-05-19T06:02:58.898Z,66.28
2019-05-19T06:03:58.888Z,64.94
2019-05-19T06:04:58.903Z,64.87
2019-05-19T06:05:58.901Z,64.47
2019-05-19T06:06:58.856Z,63.76
2019-05-19T06:07:58.849Z,64.53
2019-05-19T06:08:58.837Z,65.14
2019-05-19T06:09:58.885Z,65.84
2019-05-19T06:10:58.818Z,66.75
2019-05-19T06:11:58.804Z,68.10
2019-05-19T06:12:58.801Z,70.08
2019-05-19T06:13:58.795Z,72.28
2019-05-19T06:14:58.799Z,72.14
2019-05-19T06:15:58.758Z,71.77
2019-05-19T06:16:58.750Z,72.21
2019-05-19T06:17:58.739Z,71.80
2019-05-19T06:18:58.728Z,72.21
2019-05-19T06:19:58.746Z,72.41
2019-05-19T06:20:58.709Z,71.64
2019-05-19T06:21:58.695Z,71.77
2019-05-19T06:22:58.695Z,71.91
2019-05-19T06:23:58.675Z,72.58
2019-05-19T06:24:59.311Z,71.16
2019-05-19T06:25:58.653Z,71.03
2019-05-19T06:26:58.643Z,71.23
2019-05-19T06:27:58.636Z,70.62
2019-05-19T06:28:58.626Z,70.72
2019-05-19T06:29:58.639Z,70.72
2019-05-19T06:30:58.604Z,70.79
2019-05-19T06:31:58.599Z,70.39
2019-05-19T06:32:58.579Z,71.09
2019-05-19T06:33:58.574Z,71.94
2019-05-19T06:34:58.591Z,71.00
2019-05-19T06:35:58.546Z,71.09
2019-05-19T06:36:58.540Z,71.03
2019-05-19T06:37:58.532Z,71.53
2019-05-19T06:38:58.516Z,72.14
2019-05-19T06:39:58.533Z,71.70
2019-05-19T06:40:58.496Z,71.16
2019-05-19T06:41:58.485Z,70.32
2019-05-19T06:42:58.476Z,68.63
2019-05-19T06:43:58.462Z,68.23
2019-05-19T06:44:58.482Z,68.33
2019-05-19T06:45:58.442Z,67.49
2019-05-19T06:46:58.431Z,67.39
2019-05-19T06:47:58.426Z,67.29
2019-05-19T06:48:58.409Z,67.49
2019-05-19T06:49:58.427Z,66.89
2019-05-19T06:50:58.391Z,67.66
2019-05-19T06:51:58.375Z,66.62
2019-05-19T06:53:12.893Z,65.88
2019-05-19T06:53:59.354Z,64.64
2019-05-19T06:54:58.373Z,63.87
2019-05-19T06:55:58.339Z,63.60
2019-05-19T06:56:58.324Z,64.38
2019-05-19T06:57:58.310Z,64.01
2019-05-19T06:58:58.313Z,64.64
2019-05-19T06:59:58.361Z,66.16
2019-05-19T07:00:59.226Z,65.68
2019-05-19T07:01:58.270Z,66.08
2019-05-19T07:02:58.259Z,66.59
2019-05-19T07:03:58.247Z,65.65
2019-05-19T07:04:58.245Z,64.48
2019-05-19T07:05:58.254Z,62.91
2019-05-19T07:06:58.235Z,61.98
2019-05-19T07:07:58.206Z,61.44
2019-05-19T07:08:58.194Z,60.74
2019-05-19T07:09:58.985Z,61.24
2019-05-19T07:10:58.198Z,59.42
2019-05-19T07:11:58.182Z,57.86
2019-05-19T07:12:58.150Z,56.73
2019-05-19T07:13:58.159Z,57.03
2019-05-19T07:14:58.133Z,55.80
2019-05-19T07:15:58.472Z,57.35
2019-05-19T07:16:58.121Z,56.90
2019-05-19T07:17:58.107Z,55.07
2019-05-19T07:18:58.091Z,54.39
2019-05-19T07:19:58.088Z,52.67
2019-05-19T07:20:58.096Z,52.19
2019-05-19T07:21:58.058Z,51.03
2019-05-19T07:22:58.050Z,48.63
2019-05-19T07:23:58.040Z,49.45
2019-05-19T07:24:58.032Z,48.50
2019-05-19T07:25:58.044Z,47.42
2019-05-19T07:26:58.007Z,45.42
2019-05-19T07:27:57.998Z,42.78
2019-05-19T07:28:59.041Z,42.64
2019-05-19T07:29:57.976Z,41.46
2019-05-19T07:30:57.997Z,43.16
2019-05-19T07:31:57.951Z,43.34
2019-05-19T07:32:57.943Z,43.74
2019-05-19T07:33:57.940Z,43.52
2019-05-19T07:34:57.926Z,44.22
2019-05-19T07:35:57.939Z,43.90
2019-05-19T07:36:57.902Z,45.31
2019-05-19T07:37:57.899Z,43.66
2019-05-19T07:38:57.878Z,43.13
2019-05-19T07:39:57.878Z,44.26
2019-05-19T07:40:57.897Z,46.09
2019-05-19T07:41:57.851Z,45.85
2019-05-19T07:42:57.839Z,44.57
2019-05-19T07:43:57.834Z,43.70
2019-05-19T07:44:57.822Z,43.34
2019-05-19T07:45:57.840Z,42.79
2019-05-19T07:46:57.806Z,45.06
2019-05-19T07:47:57.791Z,44.34
2019-05-19T07:48:57.785Z,45.37
2019-05-19T07:49:57.770Z,47.11
2019-05-19T07:50:57.793Z,48.63
2019-05-19T07:51:57.747Z,47.71
2019-05-19T07:52:57.742Z,48.31
2019-05-19T07:53:57.728Z,47.56
2019-05-19T07:54:57.720Z,46.67
2019-05-19T07:55:57.731Z,47.61
2019-05-19T07:56:57.701Z,48.83
2019-05-19T07:57:57.780Z,50.25
2019-05-19T07:58:57.675Z,51.75
2019-05-19T07:59:57.662Z,51.72
2019-05-19T08:00:57.687Z,51.22
2019-05-19T08:01:57.651Z,50.49
2019-05-19T08:02:57.641Z,50.79
2019-05-19T08:03:57.643Z,50.12
2019-05-19T08:04:57.616Z,50.84
2019-05-19T08:05:57.634Z,50.62
2019-05-19T08:06:57.595Z,50.17
2019-05-19T08:07:57.587Z,47.51
2019-05-19T08:08:57.577Z,48.07
2019-05-19T08:09:57.562Z,48.07
2019-05-19T08:10:57.578Z,46.42
2019-05-19T08:11:57.543Z,47.02
2019-05-19T08:12:57.535Z,46.42
2019-05-19T08:13:57.571Z,46.05
2019-05-19T08:14:57.515Z,46.77
2019-05-19T08:15:57.537Z,48.43
2019-05-19T08:16:57.494Z,48.68
2019-05-19T08:17:57.487Z,46.27
2019-05-19T08:18:57.475Z,46.77
2019-05-19T08:19:57.471Z,46.03
2019-05-19T08:20:57.481Z,45.98
2019-05-19T08:21:57.612Z,45.86
2019-05-19T08:22:57.432Z,44.67
2019-05-19T08:24:00.894Z,44.11
2019-05-19T08:24:57.410Z,43.79
2019-05-19T08:25:57.448Z,42.46
2019-05-19T08:26:57.391Z,43.20
2019-05-19T08:28:07.411Z,42.66
2019-05-19T08:28:58.373Z,42.27
2019-05-19T08:29:57.386Z,41.36
2019-05-19T08:30:57.385Z,39.30
2019-05-19T08:31:57.342Z,38.49
2019-05-19T08:32:57.330Z,38.85
2019-05-19T08:33:57.370Z,40.55
2019-05-19T08:34:57.311Z,39.95
2019-05-19T08:35:57.332Z,39.30
2019-05-19T08:36:57.293Z,37.49
2019-05-19T08:37:57.291Z,37.39
2019-05-19T08:38:57.281Z,39.81
2019-05-19T08:39:57.268Z,41.55
2019-05-19T08:40:57.284Z,42.29
2019-05-19T08:41:57.247Z,43.00
2019-05-19T08:42:57.239Z,42.71
2019-05-19T08:43:57.277Z,41.16
2019-05-19T08:44:57.217Z,41.36
2019-05-19T08:45:57.247Z,41.25
2019-05-19T08:46:57.202Z,42.41
2019-05-19T08:47:57.189Z,43.78
2019-05-19T08:48:58.573Z,44.97
2019-05-19T08:49:57.172Z,43.08
2019-05-19T08:50:57.184Z,42.96
2019-05-19T08:51:57.149Z,41.73
2019-05-19T08:52:57.139Z,40.25
2019-05-19T08:53:57.251Z,40.23
2019-05-19T08:54:57.116Z,39.32
2019-05-19T08:55:57.135Z,39.36
2019-05-19T08:56:57.149Z,39.52
2019-05-19T08:57:57.087Z,40.61
2019-05-19T08:58:57.083Z,40.11
2019-05-19T08:59:57.068Z,39.20
2019-05-19T09:00:57.085Z,38.96
2019-05-19T09:01:57.052Z,37.66
2019-05-19T09:02:57.042Z,39.30
2019-05-19T09:03:57.089Z,39.60
2019-05-19T09:04:57.022Z,37.39
2019-05-19T09:05:57.043Z,37.96
2019-05-19T09:06:57.054Z,36.53
2019-05-19T09:07:56.995Z,37.39
2019-05-19T09:08:56.999Z,38.33
2019-05-19T09:09:56.971Z,36.95
2019-05-19T09:10:56.994Z,37.96
2019-05-19T09:11:56.964Z,37.45
2019-05-19T09:12:56.965Z,37.89
2019-05-19T09:13:57.043Z,39.12
2019-05-19T09:14:56.930Z,38.90
2019-05-19T09:15:56.943Z,39.12
2019-05-19T09:16:56.908Z,37.98
2019-05-19T09:17:56.899Z,38.55
2019-05-19T09:18:56.899Z,38.20
2019-05-19T09:19:56.878Z,37.21
2019-05-19T09:20:56.911Z,36.99
2019-05-19T09:21:56.859Z,39.26
2019-05-19T09:22:56.853Z,38.68
2019-05-19T09:23:56.905Z,40.37
2019-05-19T09:24:56.840Z,39.46
2019-05-19T09:25:56.848Z,38.88
2019-05-19T09:26:56.833Z,40.25
2019-05-19T09:27:56.802Z,41.52
2019-05-19T09:28:56.797Z,42.43
2019-05-19T09:29:56.786Z,42.57
2019-05-19T09:30:56.799Z,42.80
2019-05-19T09:31:56.766Z,42.55
2019-05-19T09:32:56.765Z,43.14
2019-05-19T09:33:56.789Z,43.04
2019-05-19T09:34:56.740Z,42.39
2019-05-19T09:35:56.787Z,43.30
2019-05-19T09:36:56.721Z,42.74
2019-05-19T09:37:56.709Z,41.10
2019-05-19T09:38:56.706Z,39.87
2019-05-19T09:39:56.694Z,39.14
2019-05-19T09:40:56.682Z,38.57
2019-05-19T09:41:56.701Z,39.42
2019-05-19T09:42:56.668Z,38.82
2019-05-19T09:43:56.707Z,37.74
2019-05-19T09:44:56.648Z,38.96
2019-05-19T09:45:56.638Z,39.12
2019-05-19T09:46:56.659Z,38.43
2019-05-19T09:47:56.618Z,37.60
2019-05-19T09:48:56.615Z,36.58
2019-05-19T09:49:56.600Z,36.99
2019-05-19T09:50:56.588Z,37.72
2019-05-19T09:51:56.607Z,37.41
2019-05-19T09:52:56.577Z,36.98
2019-05-19T09:53:56.592Z,35.84
2019-05-19T09:54:56.562Z,35.21
2019-05-19T09:55:56.543Z,35.25
2019-05-19T09:56:56.558Z,36.38
2019-05-19T09:57:56.524Z,35.97
2019-05-19T09:58:56.515Z,36.78
2019-05-19T09:59:56.503Z,36.78
2019-05-19T10:00:56.502Z,36.00
2019-05-19T10:01:56.523Z,35.88
2019-05-19T10:02:56.481Z,35.15
2019-05-19T10:03:56.580Z,34.03
2019-05-19T10:04:56.565Z,34.06
2019-05-19T10:05:56.446Z,33.75
2019-05-19T10:06:56.556Z,33.75
2019-05-19T10:07:56.496Z,33.84
2019-05-19T10:08:56.418Z,32.71
2019-05-19T10:09:56.412Z,32.20
2019-05-19T10:10:56.404Z,31.81
2019-05-19T10:11:56.419Z,32.98
2019-05-19T10:12:56.384Z,32.35
2019-05-19T10:13:56.423Z,31.67
2019-05-19T10:14:56.365Z,33.12
2019-05-19T10:15:56.359Z,34.05
2019-05-19T10:16:56.371Z,35.18
2019-05-19T10:17:56.343Z,35.88
2019-05-19T10:18:56.335Z,35.69
2019-05-19T10:19:56.323Z,35.99
2019-05-19T10:20:56.314Z,36.80
2019-05-19T10:21:56.332Z,37.30
2019-05-19T10:22:56.296Z,36.61
2019-05-19T10:23:56.365Z,36.71
2019-05-19T10:25:18.225Z,35.24
2019-05-19T10:25:57.271Z,34.08
2019-05-19T10:26:56.287Z,34.03
2019-05-19T10:27:56.252Z,32.71
2019-05-19T10:28:56.239Z,32.61
2019-05-19T10:29:56.231Z,34.49
2019-05-19T10:30:56.228Z,34.38
2019-05-19T10:31:56.240Z,34.51
2019-05-19T10:32:58.712Z,35.33
2019-05-19T10:33:56.266Z,36.37
2019-05-19T10:34:56.192Z,37.85
2019-05-19T10:35:56.178Z,37.05
2019-05-19T10:36:56.206Z,37.45
2019-05-19T10:37:56.163Z,39.98
2019-05-19T10:38:56.150Z,37.07
2019-05-19T10:39:56.143Z,35.30
2019-05-19T10:40:56.135Z,34.43
2019-05-19T10:41:56.150Z,34.49
2019-05-19T10:42:56.112Z,33.74
2019-05-19T10:43:56.130Z,32.31
2019-05-19T10:44:56.097Z,31.82
2019-05-19T10:45:56.088Z,32.17
2019-05-19T10:46:56.106Z,31.45
2019-05-19T10:47:56.067Z,33.26
2019-05-19T10:48:56.059Z,34.18
2019-05-19T10:49:56.059Z,34.36
2019-05-19T10:50:56.043Z,33.84
2019-05-19T10:51:56.064Z,33.26
2019-05-19T10:52:56.028Z,33.48
2019-05-19T10:53:56.095Z,34.84
2019-05-19T10:54:56.011Z,31.32
2019-05-19T10:55:56.002Z,32.73
2019-05-19T10:56:56.016Z,31.39
2019-05-19T10:57:55.986Z,29.79
2019-05-19T10:58:55.975Z,29.87
2019-05-19T10:59:55.996Z,31.23
2019-05-19T11:00:55.958Z,29.73
2019-05-19T11:01:55.978Z,29.07
2019-05-19T11:02:55.935Z,29.34
2019-05-19T11:03:55.931Z,29.62
2019-05-19T11:04:55.919Z,29.43
2019-05-19T11:05:55.913Z,29.21
2019-05-19T11:06:55.928Z,28.19
2019-05-19T11:07:55.891Z,28.57
2019-05-19T11:08:55.885Z,29.91
2019-05-19T11:09:55.874Z,31.76
2019-05-19T11:10:55.869Z,31.64
2019-05-19T11:11:55.883Z,32.86
2019-05-19T11:12:55.855Z,35.93
2019-05-19T11:13:55.840Z,36.79
2019-05-19T11:14:55.842Z,38.49
2019-05-19T11:15:55.823Z,37.40
2019-05-19T11:16:55.847Z,37.91
2019-05-19T11:17:55.806Z,39.04
2019-05-19T11:18:55.798Z,39.55
2019-05-19T11:19:55.782Z,39.07
2019-05-19T11:20:55.779Z,40.26
2019-05-19T11:21:55.795Z,40.78
2019-05-19T11:22:55.759Z,36.88
2019-05-19T11:23:55.754Z,34.99
2019-05-19T11:24:55.745Z,33.65
2019-05-19T11:25:55.732Z,33.02
2019-05-19T11:26:55.748Z,31.16
2019-05-19T11:27:55.711Z,32.21
2019-05-19T11:28:55.705Z,31.73
2019-05-19T11:29:55.694Z,32.14
2019-05-19T11:30:55.684Z,30.45
2019-05-19T11:31:55.701Z,29.45
2019-05-19T11:32:55.664Z,29.85
2019-05-19T11:33:55.658Z,29.55
2019-05-19T11:34:55.643Z,31.13
2019-05-19T11:35:55.642Z,28.96
2019-05-19T11:36:55.651Z,29.33
2019-05-19T11:37:55.624Z,28.75
2019-05-19T11:38:55.614Z,28.96
2019-05-19T11:39:55.603Z,30.07
2019-05-19T11:40:55.592Z,31.98
2019-05-19T11:41:55.615Z,33.92
2019-05-19T11:42:55.570Z,34.94
2019-05-19T11:43:55.567Z,34.78
2019-05-19T11:44:55.577Z,34.67
2019-05-19T11:45:55.543Z,35.44
2019-05-19T11:46:55.561Z,36.19
2019-05-19T11:47:55.528Z,35.38
2019-05-19T11:48:55.519Z,35.37
2019-05-19T11:49:55.507Z,35.37
2019-05-19T11:50:55.502Z,37.83
2019-05-19T11:51:55.524Z,37.67
2019-05-19T11:52:55.476Z,38.66
2019-05-19T11:53:55.477Z,37.15
2019-05-19T11:54:55.465Z,36.96
2019-05-19T11:56:06.317Z,35.30
2019-05-19T11:56:56.471Z,34.13
2019-05-19T11:57:55.431Z,34.61
2019-05-19T11:58:55.420Z,33.18
2019-05-19T11:59:55.411Z,30.79
2019-05-19T12:00:55.404Z,30.68
2019-05-19T12:01:55.395Z,29.48
2019-05-19T12:02:55.406Z,29.28
2019-05-19T12:03:55.614Z,29.07
2019-05-19T12:04:55.367Z,28.44
2019-05-19T12:05:55.361Z,27.31
2019-05-19T12:06:55.354Z,27.01
2019-05-19T12:07:55.373Z,27.01
2019-05-19T12:08:55.346Z,28.83
2019-05-19T12:09:55.327Z,28.33
2019-05-19T12:10:55.312Z,27.81
2019-05-19T12:11:55.305Z,27.75
2019-05-19T12:12:55.322Z,27.07
2019-05-19T12:13:55.285Z,26.75
2019-05-19T12:14:55.278Z,27.29
2019-05-19T12:15:55.267Z,29.52
2019-05-19T12:16:55.294Z,29.57
2019-05-19T12:17:55.282Z,30.60
2019-05-19T12:18:57.508Z,31.81
2019-05-19T12:19:55.230Z,34.28
2019-05-19T12:20:55.229Z,34.12
2019-05-19T12:21:55.221Z,33.00
2019-05-19T12:22:55.233Z,31.47
2019-05-19T12:23:55.197Z,31.32
2019-05-19T12:24:55.185Z,30.60
2019-05-19T12:25:55.178Z,30.63
2019-05-19T12:26:55.174Z,31.47
2019-05-19T12:27:55.179Z,33.15
2019-05-19T12:28:55.146Z,32.59
2019-05-19T12:29:55.140Z,34.05
2019-05-19T12:30:55.128Z,32.68
2019-05-19T12:31:55.119Z,31.71
2019-05-19T12:32:55.225Z,32.90
2019-05-19T12:33:55.129Z,32.65
2019-05-19T12:34:55.079Z,31.96
2019-05-19T12:35:55.080Z,31.54
2019-05-19T12:36:55.094Z,32.49
2019-05-19T12:37:55.094Z,34.13
2019-05-19T12:38:55.060Z,33.82
2019-05-19T12:39:55.063Z,34.22
2019-05-19T12:40:55.038Z,33.62
2019-05-19T12:41:55.023Z,35.06
2019-05-19T12:42:55.042Z,34.83
2019-05-19T12:43:55.003Z,38.14
2019-05-19T12:44:54.996Z,36.96
2019-05-19T12:45:54.991Z,38.97
2019-05-19T12:46:54.978Z,37.28
2019-05-19T12:47:54.997Z,37.24
2019-05-19T12:48:54.963Z,34.86
2019-05-19T12:49:54.960Z,35.77
2019-05-19T12:50:54.937Z,36.27
2019-05-19T12:51:54.935Z,35.14